createdAt,value
2018-03-01T00:01:41.437Z,75.23
2018-03-01T00:04:09.164Z,74.67
2018-03-01T00:06:37.394Z,74.66
2018-03-01T00:09:05.190Z,75.40
2018-03-01T00:11:32.955Z,75.88
2018-03-01T00:14:00.686Z,76.62
2018-03-01T00:16:28.439Z,75.79
2018-03-01T00:18:56.111Z,75.85
2018-03-01T00:21:23.855Z,75.91
2018-03-01T00:23:51.609Z,77.03
2018-03-01T00:26:19.395Z,79.08
2018-03-01T00:28:47.110Z,82.14
2018-03-01T00:31:14.836Z,78.90
2018-03-01T00:33:42.538Z,77.02
2018-03-01T00:36:10.258Z,77.55
2018-03-01T00:38:38.085Z,77.10
2018-03-01T00:41:05.751Z,77.18
2018-03-01T00:43:33.468Z,77.14
2018-03-01T00:46:01.143Z,76.82
2018-03-01T00:48:28.878Z,76.04
2018-03-01T00:50:56.582Z,75.56
2018-03-01T00:53:24.338Z,76.42
2018-03-01T00:55:52.006Z,76.80
2018-03-01T00:58:19.707Z,76.90
2018-03-01T01:00:47.439Z,76.82
2018-03-01T01:03:15.112Z,77.34
2018-03-01T01:05:42.864Z,78.41
2018-03-01T01:08:10.549Z,78.63
2018-03-01T01:10:38.272Z,78.39
2018-03-01T01:13:05.964Z,79.28
2018-03-01T01:15:33.714Z,78.62
2018-03-01T01:18:01.486Z,78.10
2018-03-01T01:20:29.242Z,77.63
2018-03-01T01:22:56.997Z,77.70
2018-03-01T01:25:24.671Z,79.42
2018-03-01T01:27:52.394Z,79.16
2018-03-01T01:30:20.091Z,77.41
2018-03-01T01:32:47.832Z,76.60
2018-03-01T01:35:15.524Z,77.97
2018-03-01T01:37:43.275Z,77.83
2018-03-01T01:40:10.963Z,77.48
2018-03-01T01:42:38.705Z,76.93
2018-03-01T01:45:06.404Z,77.01
2018-03-01T01:47:34.245Z,77.07
2018-03-01T01:50:01.950Z,76.94
2018-03-01T01:52:29.718Z,76.49
2018-03-01T01:54:57.380Z,77.49
2018-03-01T01:57:25.049Z,77.39
2018-03-01T01:59:52.783Z,77.80
2018-03-01T02:02:20.457Z,77.33
2018-03-01T02:04:48.192Z,77.31
2018-03-01T02:07:15.912Z,77.22
2018-03-01T02:09:43.669Z,77.24
2018-03-01T02:12:11.430Z,77.53
2018-03-01T02:14:39.146Z,76.99
2018-03-01T02:17:06.930Z,76.85
2018-03-01T02:19:34.640Z,76.69
2018-03-01T02:22:02.318Z,76.06
2018-03-01T02:24:30.053Z,76.11
2018-03-01T02:26:57.749Z,76.50
2018-03-01T02:29:25.499Z,76.54
2018-03-01T02:31:53.215Z,76.59
2018-03-01T02:34:21.094Z,77.86
2018-03-01T02:36:48.824Z,77.43
2018-03-01T02:39:16.558Z,77.61
2018-03-01T02:41:44.234Z,77.65
2018-03-01T02:44:12.000Z,77.32
2018-03-01T02:46:39.687Z,77.38
2018-03-01T02:49:07.462Z,77.29
2018-03-01T02:51:35.181Z,77.29
2018-03-01T02:54:02.890Z,77.13
2018-03-01T02:56:30.625Z,76.86
2018-03-01T02:58:58.375Z,76.55
2018-03-01T03:01:26.104Z,76.34
2018-03-01T03:03:54.141Z,75.90
2018-03-01T03:06:21.807Z,76.56
2018-03-01T03:08:49.519Z,76.77
2018-03-01T03:11:17.208Z,76.83
2018-03-01T03:13:44.925Z,77.21
2018-03-01T03:16:12.634Z,77.60
2018-03-01T03:18:40.342Z,77.16
2018-03-01T03:21:08.007Z,77.25
2018-03-01T03:23:35.723Z,77.01
2018-03-01T03:26:03.446Z,77.10
2018-03-01T03:28:31.124Z,78.04
2018-03-01T03:30:58.845Z,78.03
2018-03-01T03:33:26.574Z,78.13
2018-03-01T03:35:54.255Z,77.76
2018-03-01T03:38:21.951Z,77.95
2018-03-01T03:40:49.678Z,79.26
2018-03-01T03:43:17.369Z,79.68
2018-03-01T03:45:45.094Z,77.77
2018-03-01T03:48:12.783Z,77.70
2018-03-01T03:50:40.457Z,77.64
2018-03-01T03:53:08.203Z,77.27
2018-03-01T03:55:36.039Z,77.37
2018-03-01T03:58:03.770Z,77.35
2018-03-01T04:00:31.430Z,77.16
2018-03-01T04:02:59.166Z,76.80
2018-03-01T04:05:27.885Z,77.24
2018-03-01T04:07:55.560Z,77.44
2018-03-01T04:10:23.273Z,78.27
2018-03-01T04:12:51.030Z,77.50
2018-03-01T04:15:18.776Z,77.54
2018-03-01T04:17:46.559Z,77.76
2018-03-01T04:20:14.345Z,78.58
2018-03-01T04:22:42.407Z,79.54
2018-03-01T04:25:10.125Z,79.14
2018-03-01T04:27:37.824Z,79.01
2018-03-01T04:30:05.554Z,79.14
2018-03-01T04:32:33.467Z,78.97
2018-03-01T04:35:01.196Z,78.65
2018-03-01T04:37:29.086Z,78.33
2018-03-01T04:39:56.776Z,78.20
2018-03-01T04:42:24.447Z,78.22
2018-03-01T04:44:52.208Z,78.43
2018-03-01T04:47:20.016Z,78.22
2018-03-01T04:49:47.751Z,79.10
2018-03-01T04:52:15.515Z,79.24
2018-03-01T04:54:43.199Z,79.22
2018-03-01T04:57:10.928Z,79.47
2018-03-01T04:59:38.668Z,79.23
2018-03-01T05:02:06.418Z,79.13
2018-03-01T05:04:34.543Z,78.95
2018-03-01T05:07:02.273Z,80.17
2018-03-01T05:09:29.967Z,80.93
2018-03-01T05:11:57.688Z,79.97
2018-03-01T05:14:25.430Z,79.60
2018-03-01T05:16:53.168Z,79.60
2018-03-01T05:19:20.869Z,79.43
2018-03-01T05:21:48.620Z,79.13
2018-03-01T05:24:16.307Z,79.70
2018-03-01T05:26:44.064Z,79.31
2018-03-01T05:29:11.734Z,79.18
2018-03-01T05:31:39.501Z,78.95
2018-03-01T05:34:07.209Z,79.22
2018-03-01T05:36:34.939Z,79.25
2018-03-01T05:39:02.685Z,79.25
2018-03-01T05:41:30.399Z,78.87
2018-03-01T05:43:58.191Z,78.89
2018-03-01T05:46:25.908Z,78.90
2018-03-01T05:48:53.666Z,78.88
2018-03-01T05:51:21.464Z,79.50
2018-03-01T05:53:49.273Z,79.66
2018-03-01T05:56:16.976Z,79.98
2018-03-01T05:58:44.725Z,79.96
2018-03-01T06:01:12.480Z,80.12
2018-03-01T06:03:40.198Z,79.08
2018-03-01T06:06:07.911Z,80.77
2018-03-01T06:08:35.598Z,78.97
2018-03-01T06:11:03.328Z,77.90
2018-03-01T06:13:31.014Z,76.75
2018-03-01T06:15:58.798Z,75.03
2018-03-01T06:18:26.508Z,73.05
2018-03-01T06:20:54.214Z,71.31
2018-03-01T06:23:21.930Z,67.78
2018-03-01T06:25:49.589Z,63.58
2018-03-01T06:28:17.327Z,61.21
2018-03-01T06:30:45.033Z,58.21
2018-03-01T06:33:12.806Z,60.06
2018-03-01T06:35:40.534Z,63.80
2018-03-01T06:38:08.268Z,66.37
2018-03-01T06:40:36.027Z,67.78
2018-03-01T06:43:03.774Z,68.70
2018-03-01T06:45:31.528Z,68.75
2018-03-01T06:47:59.240Z,68.53
2018-03-01T06:50:26.930Z,68.19
2018-03-01T06:52:54.681Z,68.83
2018-03-01T06:55:22.484Z,68.70
2018-03-01T06:57:50.252Z,68.75
2018-03-01T07:00:17.941Z,68.08
2018-03-01T07:02:45.700Z,66.75
2018-03-01T07:05:13.407Z,66.40
2018-03-01T07:07:41.196Z,67.34
2018-03-01T07:10:08.962Z,64.91
2018-03-01T07:12:36.755Z,63.46
2018-03-01T07:15:04.513Z,63.14
2018-03-01T07:17:32.257Z,61.24
2018-03-01T07:20:00.040Z,63.03
2018-03-01T07:22:27.757Z,62.21
2018-03-01T07:24:57.004Z,62.72
2018-03-01T07:27:25.203Z,61.43
2018-03-01T07:29:52.887Z,61.85
2018-03-01T07:32:20.604Z,62.84
2018-03-01T07:34:48.420Z,62.46
2018-03-01T07:37:16.152Z,62.05
2018-03-01T07:39:45.152Z,61.82
2018-03-01T07:42:12.894Z,61.08
2018-03-01T07:44:40.599Z,59.06
2018-03-01T07:47:09.093Z,59.27
2018-03-01T07:49:36.884Z,57.58
2018-03-01T07:52:04.672Z,56.80
2018-03-01T07:54:32.400Z,55.47
2018-03-01T07:57:00.174Z,55.06
2018-03-01T07:59:27.878Z,55.32
2018-03-01T08:01:55.576Z,53.36
2018-03-01T08:04:23.335Z,52.49
2018-03-01T08:06:51.064Z,51.26
2018-03-01T08:09:19.820Z,50.16
2018-03-01T08:11:47.671Z,52.93
2018-03-01T08:14:15.392Z,52.67
2018-03-01T08:16:43.154Z,51.59
2018-03-01T08:19:10.891Z,51.41
2018-03-01T08:21:38.593Z,49.97
2018-03-01T08:24:06.340Z,47.81
2018-03-01T08:26:34.032Z,48.59
2018-03-01T08:29:01.795Z,49.45
2018-03-01T08:31:29.526Z,47.92
2018-03-01T08:33:57.235Z,47.66
2018-03-01T08:36:25.006Z,47.08
2018-03-01T08:38:52.745Z,45.46
2018-03-01T08:41:20.469Z,47.81
2018-03-01T08:43:48.210Z,48.80
2018-03-01T08:46:15.948Z,48.58
2018-03-01T08:48:43.733Z,49.07
2018-03-01T08:51:11.587Z,48.25
2018-03-01T08:53:39.391Z,49.19
2018-03-01T08:56:07.122Z,49.23
2018-03-01T08:58:34.947Z,49.00
2018-03-01T09:01:02.827Z,49.23
2018-03-01T09:03:30.543Z,47.68
2018-03-01T09:05:58.303Z,46.87
2018-03-01T09:08:26.024Z,47.36
2018-03-01T09:10:53.815Z,45.55
2018-03-01T09:13:21.527Z,46.59
2018-03-01T09:15:49.455Z,46.40
2018-03-01T09:18:17.217Z,46.00
2018-03-01T09:20:44.952Z,46.80
2018-03-01T09:23:12.684Z,44.97
2018-03-01T09:25:40.555Z,45.23
2018-03-01T09:28:09.236Z,46.15
2018-03-01T09:30:36.946Z,43.97
2018-03-01T09:33:04.709Z,44.85
2018-03-01T09:35:32.465Z,44.76
2018-03-01T09:38:00.207Z,44.75
2018-03-01T09:40:27.986Z,44.16
2018-03-01T09:42:55.772Z,41.90
2018-03-01T09:45:23.566Z,40.10
2018-03-01T09:47:51.340Z,41.18
2018-03-01T09:50:19.021Z,43.34
2018-03-01T09:52:46.825Z,42.78
2018-03-01T09:55:14.547Z,42.19
2018-03-01T09:57:42.250Z,41.46
2018-03-01T10:00:10.051Z,39.71
2018-03-01T10:02:37.750Z,41.86
2018-03-01T10:05:05.557Z,43.40
2018-03-01T10:07:33.297Z,42.42
2018-03-01T10:10:00.997Z,42.62
2018-03-01T10:12:28.811Z,42.35
2018-03-01T10:14:57.700Z,42.84
2018-03-01T10:17:25.468Z,43.19
2018-03-01T10:19:53.176Z,43.46
2018-03-01T10:22:20.920Z,41.62
2018-03-01T10:24:48.645Z,38.46
2018-03-01T10:27:17.440Z,41.49
2018-03-01T10:29:47.997Z,41.38
2018-03-01T10:32:15.724Z,39.82
2018-03-01T10:34:43.564Z,39.81
2018-03-01T10:37:11.328Z,40.17
2018-03-01T10:39:39.064Z,41.13
2018-03-01T10:42:06.791Z,40.49
2018-03-01T10:44:34.620Z,41.06
2018-03-01T10:47:02.403Z,39.69
2018-03-01T10:49:31.286Z,41.36
2018-03-01T10:51:59.058Z,43.40
2018-03-01T10:54:26.928Z,43.20
2018-03-01T10:56:54.781Z,41.60
2018-03-01T10:59:22.626Z,43.46
2018-03-01T11:01:52.524Z,41.27
2018-03-01T11:04:21.451Z,41.64
2018-03-01T11:06:50.624Z,42.65
2018-03-01T11:09:18.550Z,41.45
2018-03-01T11:11:47.114Z,40.22
2018-03-01T11:14:15.074Z,40.83
2018-03-01T11:16:43.811Z,40.48
2018-03-01T11:19:11.599Z,42.70
2018-03-01T11:21:41.007Z,43.41
2018-03-01T11:24:09.204Z,43.38
2018-03-01T11:26:37.243Z,43.13
2018-03-01T11:29:06.855Z,42.81
2018-03-01T11:31:34.954Z,43.18
2018-03-01T11:34:02.887Z,42.67
2018-03-01T11:36:31.062Z,42.80
2018-03-01T11:39:00.264Z,42.95
2018-03-01T11:41:28.370Z,43.69
2018-03-01T11:43:56.652Z,43.04
2018-03-01T11:46:24.802Z,44.07
2018-03-01T11:48:52.693Z,42.93
2018-03-01T11:51:20.855Z,43.38
2018-03-01T11:53:50.160Z,42.73
2018-03-01T11:56:18.092Z,43.92
2018-03-01T11:58:45.961Z,43.14
2018-03-01T12:01:14.149Z,43.45
2018-03-01T12:03:41.936Z,43.90
2018-03-01T12:06:09.932Z,44.43
2018-03-01T12:08:37.828Z,44.77
2018-03-01T12:11:06.042Z,45.02
2018-03-01T12:13:34.081Z,44.94
2018-03-01T12:16:01.959Z,44.99
2018-03-01T12:18:29.959Z,44.83
2018-03-01T12:20:57.862Z,44.17
2018-03-01T12:23:26.052Z,44.05
2018-03-01T12:25:53.845Z,44.19
2018-03-01T12:28:22.062Z,43.94
2018-03-01T12:30:50.166Z,43.89
2018-03-01T12:33:18.168Z,44.46
2018-03-01T12:35:46.182Z,45.46
2018-03-01T12:38:14.235Z,45.42
2018-03-01T12:40:42.172Z,44.82
2018-03-01T12:43:10.167Z,44.48
2018-03-01T12:45:38.750Z,45.96
2018-03-01T12:48:06.686Z,45.47
2018-03-01T12:50:39.360Z,45.78
2018-03-01T12:53:07.953Z,46.62
2018-03-01T12:55:35.824Z,45.97
2018-03-01T12:58:04.436Z,46.73
2018-03-01T13:00:35.527Z,46.67
2018-03-01T13:03:03.577Z,46.54
2018-03-01T13:05:33.362Z,45.94
2018-03-01T13:08:01.228Z,45.91
2018-03-01T13:10:29.922Z,45.96
2018-03-01T13:12:57.943Z,46.29
2018-03-01T13:15:26.058Z,45.92
2018-03-01T13:17:54.099Z,44.93
2018-03-01T13:20:22.005Z,45.49
2018-03-01T13:22:49.933Z,43.14
2018-03-01T13:25:17.731Z,44.19
2018-03-01T13:27:45.802Z,44.13
2018-03-01T13:30:16.671Z,43.88
2018-03-01T13:32:45.133Z,44.12
2018-03-01T13:35:16.768Z,42.92
2018-03-01T13:37:44.644Z,45.00
2018-03-01T13:40:12.577Z,44.34
2018-03-01T13:42:43.965Z,44.29
2018-03-01T13:45:12.758Z,43.14
2018-03-01T13:47:41.338Z,44.10
2018-03-01T13:50:09.405Z,41.91
2018-03-01T13:52:37.502Z,42.92
2018-03-01T13:55:05.622Z,44.41
2018-03-01T13:57:33.494Z,44.74
2018-03-01T14:00:01.387Z,44.38
2018-03-01T14:02:38.193Z,43.50
2018-03-01T14:05:06.242Z,43.67
2018-03-01T14:07:36.012Z,42.43
2018-03-01T14:10:03.811Z,42.30
2018-03-01T14:12:34.596Z,43.85
2018-03-01T14:15:03.028Z,43.56
2018-03-01T14:17:47.896Z,43.29
2018-03-01T14:20:21.498Z,44.37
2018-03-01T14:23:04.234Z,44.32
2018-03-01T14:25:35.974Z,43.74
2018-03-01T14:28:13.784Z,44.98
2018-03-01T14:30:41.523Z,44.26
2018-03-01T14:33:09.525Z,44.78
2018-03-01T14:35:37.370Z,44.87
2018-03-01T14:38:05.236Z,45.65
2018-03-01T14:40:33.375Z,44.97
2018-03-01T14:43:01.196Z,45.41
2018-03-01T14:45:29.362Z,44.89
2018-03-01T14:47:57.403Z,44.74
2018-03-01T14:50:25.111Z,45.06
2018-03-01T14:52:52.902Z,45.03
2018-03-01T14:55:20.719Z,44.79
2018-03-01T14:57:48.521Z,43.96
2018-03-01T15:00:16.307Z,43.00
2018-03-01T15:02:44.015Z,43.54
2018-03-01T15:05:11.809Z,44.72
2018-03-01T15:07:39.559Z,44.49
2018-03-01T15:10:07.247Z,44.69
2018-03-01T15:12:34.997Z,44.37
2018-03-01T15:15:02.773Z,42.86
2018-03-01T15:17:30.544Z,44.09
2018-03-01T15:19:58.272Z,43.29
2018-03-01T15:22:26.067Z,43.94
2018-03-01T15:24:53.811Z,43.07
2018-03-01T15:27:21.544Z,43.42
2018-03-01T15:29:49.228Z,45.05
2018-03-01T15:32:17.047Z,45.37
2018-03-01T15:34:44.768Z,45.38
2018-03-01T15:37:12.482Z,46.37
2018-03-01T15:39:40.241Z,46.65
2018-03-01T15:42:08.050Z,46.10
2018-03-01T15:44:35.822Z,47.33
2018-03-01T15:47:03.587Z,47.84
2018-03-01T15:49:31.696Z,47.27
2018-03-01T15:51:59.817Z,46.79
2018-03-01T15:54:27.808Z,46.91
2018-03-01T15:56:55.860Z,46.58
2018-03-01T15:59:24.555Z,47.21
2018-03-01T16:01:52.561Z,48.40
2018-03-01T16:04:20.658Z,48.26
2018-03-01T16:06:48.820Z,48.36
2018-03-01T16:09:16.784Z,48.18
2018-03-01T16:11:45.121Z,48.64
2018-03-01T16:14:13.249Z,48.50
2018-03-01T16:16:41.786Z,50.47
2018-03-01T16:19:10.006Z,51.08
2018-03-01T16:21:38.011Z,52.96
2018-03-01T16:24:07.303Z,53.15
2018-03-01T16:26:35.205Z,53.58
2018-03-01T16:29:03.377Z,54.57
2018-03-01T16:31:31.431Z,55.33
2018-03-01T16:33:59.827Z,56.01
2018-03-01T16:36:27.820Z,56.40
2018-03-01T16:38:57.002Z,57.14
2018-03-01T16:41:24.955Z,56.51
2018-03-01T16:43:52.874Z,57.90
2018-03-01T16:46:21.084Z,57.42
2018-03-01T16:48:49.268Z,59.15
2018-03-01T16:51:17.548Z,61.94
2018-03-01T16:53:45.896Z,61.57
2018-03-01T16:56:14.356Z,61.30
2018-03-01T16:58:43.074Z,61.92
2018-03-01T17:01:11.464Z,60.63
2018-03-01T17:03:40.354Z,62.44
2018-03-01T17:06:08.453Z,63.25
2018-03-01T17:08:36.522Z,63.49
2018-03-01T17:11:04.583Z,63.86
2018-03-01T17:13:32.601Z,64.87
2018-03-01T17:16:00.507Z,63.67
2018-03-01T17:18:28.579Z,63.40
2018-03-01T17:20:56.926Z,63.77
2018-03-01T17:23:25.117Z,63.34
2018-03-01T17:25:53.205Z,62.95
2018-03-01T17:28:22.076Z,63.60
2018-03-01T17:30:50.055Z,63.39
2018-03-01T17:33:18.853Z,62.79
2018-03-01T17:35:47.950Z,66.26
2018-03-01T17:38:16.122Z,66.91
2018-03-01T17:40:44.159Z,66.53
2018-03-01T17:43:11.908Z,65.54
2018-03-01T17:45:40.299Z,64.42
2018-03-01T17:48:09.742Z,64.69
2018-03-01T17:50:38.077Z,65.30
2018-03-01T17:53:07.500Z,66.34
2018-03-01T17:55:35.425Z,66.89
2018-03-01T17:58:03.221Z,67.73
2018-03-01T18:00:31.078Z,67.76
2018-03-01T18:02:58.930Z,68.58
2018-03-01T18:05:26.791Z,68.58
2018-03-01T18:07:54.534Z,68.16
2018-03-01T18:10:22.406Z,67.81
2018-03-01T18:12:50.223Z,67.70
2018-03-01T18:15:18.068Z,67.31
2018-03-01T18:17:45.864Z,67.87
2018-03-01T18:20:13.646Z,68.28
2018-03-01T18:22:41.428Z,70.20
2018-03-01T18:25:09.229Z,71.30
2018-03-01T18:27:37.012Z,70.67
2018-03-01T18:30:04.938Z,67.99
2018-03-01T18:32:32.738Z,63.98
2018-03-01T18:35:00.777Z,61.47
2018-03-01T18:37:29.399Z,66.03
2018-03-01T18:39:58.152Z,65.28
2018-03-01T18:42:25.991Z,60.03
2018-03-01T18:44:53.827Z,61.15
2018-03-01T18:47:21.664Z,63.79
2018-03-01T18:49:49.467Z,64.77
2018-03-01T18:52:17.372Z,62.36
2018-03-01T18:54:45.374Z,64.62
2018-03-01T18:57:13.116Z,66.25
2018-03-01T18:59:40.927Z,66.02
2018-03-01T19:02:09.752Z,66.82
2018-03-01T19:04:38.048Z,69.94
2018-03-01T19:07:05.874Z,70.03
2018-03-01T19:09:33.687Z,70.23
2018-03-01T19:12:01.470Z,71.20
2018-03-01T19:14:29.344Z,71.26
2018-03-01T19:16:57.142Z,71.86
2018-03-01T19:19:24.838Z,72.00
2018-03-01T19:21:52.672Z,72.01
2018-03-01T19:24:20.475Z,71.27
2018-03-01T19:26:49.063Z,71.41
2018-03-01T19:29:17.220Z,71.89
2018-03-01T19:31:46.088Z,72.31
2018-03-01T19:34:14.201Z,72.72
2018-03-01T19:36:41.973Z,72.54
2018-03-01T19:39:10.016Z,72.41
2018-03-01T19:41:37.843Z,72.21
2018-03-01T19:44:05.558Z,71.07
2018-03-01T19:46:33.453Z,71.13
2018-03-01T19:49:01.327Z,71.13
2018-03-01T19:51:29.187Z,71.06
2018-03-01T19:53:56.944Z,71.45
2018-03-01T19:56:24.822Z,72.13
2018-03-01T19:58:52.656Z,72.09
2018-03-01T20:01:20.467Z,71.34
2018-03-01T20:03:48.276Z,70.62
2018-03-01T20:06:16.248Z,70.16
2018-03-01T20:08:44.086Z,69.91
2018-03-01T20:11:15.809Z,69.56
2018-03-01T20:13:43.669Z,70.97
2018-03-01T20:16:11.573Z,71.84
2018-03-01T20:18:39.667Z,71.58
2018-03-01T20:21:08.530Z,70.21
2018-03-01T20:23:40.544Z,69.33
2018-03-01T20:26:08.596Z,69.92
2018-03-01T20:28:36.588Z,65.00
2018-03-01T20:31:06.021Z,66.54
2018-03-01T20:33:34.879Z,67.09
2018-03-01T20:36:02.807Z,69.11
2018-03-01T20:38:31.003Z,68.48
2018-03-01T20:40:59.167Z,69.34
2018-03-01T20:43:27.107Z,69.34
2018-03-01T20:45:55.900Z,69.84
2018-03-01T20:48:23.865Z,69.25
2018-03-01T20:50:51.983Z,66.26
2018-03-01T20:53:21.145Z,64.35
2018-03-01T20:55:50.973Z,62.49
2018-03-01T20:58:19.144Z,65.48
2018-03-01T21:00:47.062Z,63.40
2018-03-01T21:03:15.104Z,64.17
2018-03-01T21:05:44.399Z,67.51
2018-03-01T21:08:13.549Z,69.12
2018-03-01T21:10:41.571Z,69.06
2018-03-01T21:13:09.832Z,69.67
2018-03-01T21:15:38.466Z,71.42
2018-03-01T21:18:06.442Z,70.20
2018-03-01T21:20:34.881Z,69.65
2018-03-01T21:23:03.124Z,71.81
2018-03-01T21:25:31.125Z,71.71
2018-03-01T21:27:59.140Z,71.32
2018-03-01T21:30:27.176Z,71.26
2018-03-01T21:32:55.481Z,71.76
2018-03-01T21:35:24.159Z,70.97
2018-03-01T21:37:52.201Z,70.26
2018-03-01T21:40:20.215Z,70.09
2018-03-01T21:42:48.347Z,69.66
2018-03-01T21:45:16.401Z,69.43
2018-03-01T21:47:44.542Z,71.03
2018-03-01T21:50:12.631Z,72.49
2018-03-01T21:52:41.761Z,72.68
2018-03-01T21:55:09.817Z,73.02
2018-03-01T21:57:39.667Z,72.92
2018-03-01T22:00:07.699Z,73.13
2018-03-01T22:02:36.470Z,72.72
2018-03-01T22:05:05.165Z,72.27
2018-03-01T22:07:33.076Z,71.69
2018-03-01T22:10:01.315Z,72.00
2018-03-01T22:12:29.139Z,72.29
2018-03-01T22:14:57.150Z,71.24
2018-03-01T22:17:25.223Z,70.61
2018-03-01T22:19:53.813Z,71.25
2018-03-01T22:22:21.753Z,72.19
2018-03-01T22:24:49.843Z,72.02
2018-03-01T22:27:17.942Z,72.08
2018-03-01T22:29:45.872Z,72.34
2018-03-01T22:32:13.720Z,71.86
2018-03-01T22:34:41.711Z,73.95
2018-03-01T22:37:09.605Z,74.54
2018-03-01T22:39:37.546Z,73.69
2018-03-01T22:42:08.319Z,74.03
2018-03-01T22:44:36.326Z,73.97
2018-03-01T22:47:04.443Z,73.94
2018-03-01T22:49:32.534Z,73.87
2018-03-01T22:52:00.380Z,74.17
2018-03-01T22:54:28.444Z,73.46
2018-03-01T22:56:56.535Z,75.08
2018-03-01T22:59:24.481Z,75.03
2018-03-01T23:01:52.347Z,74.34
2018-03-01T23:04:20.538Z,73.72
2018-03-01T23:06:48.525Z,74.07
2018-03-01T23:09:16.533Z,74.36
2018-03-01T23:11:44.414Z,74.85
2018-03-01T23:14:13.627Z,75.13
2018-03-01T23:16:41.662Z,74.46
2018-03-01T23:19:09.566Z,75.21
2018-03-01T23:21:39.836Z,75.86
2018-03-01T23:24:08.538Z,75.36
2018-03-01T23:26:36.379Z,76.66
2018-03-01T23:29:04.507Z,76.88
2018-03-01T23:31:32.395Z,76.14
2018-03-01T23:34:00.199Z,76.04
2018-03-01T23:36:28.457Z,76.17
2018-03-01T23:38:56.533Z,76.03
2018-03-01T23:41:24.609Z,75.70
2018-03-01T23:43:52.438Z,76.22
2018-03-01T23:46:20.442Z,76.29
2018-03-01T23:48:48.534Z,75.90
2018-03-01T23:51:16.487Z,75.98
2018-03-01T23:53:44.453Z,76.10
2018-03-01T23:56:12.465Z,75.84
2018-03-01T23:58:40.308Z,76.02
